Time;durP1;ratioP1;P1;durP2;ratioP2;P2;SDS_P1;SDS_P2;PMS_P1;PMS_P2;Temp;Humidity;BMP_temperature;BMP_pressure;BME280_temperature;BME280_humidity;BME280_pressure;Samples;Min_cycle;Max_cycle;Signal;HPM_P1;HPM_P2
2021/12/21 00:00:17;;;;;;;25.37;4.10;;;6.40;99.90;;;;;;5050507;28;20695;-56
2021/12/21 00:02:46;;;;;;;23.33;3.63;;;6.50;99.90;;;;;;5050516;28;20586;-56
2021/12/21 00:05:17;;;;;;;17.37;3.30;;;6.50;99.90;;;;;;5050055;28;20211;-56
2021/12/21 00:07:45;;;;;;;23.37;4.23;;;6.40;99.90;;;;;;5050465;28;20193;-56
2021/12/21 00:10:12;;;;;;;23.57;3.80;;;6.50;99.90;;;;;;5050763;28;20173;-56
2021/12/21 00:12:47;;;;;;;27.17;4.43;;;6.40;99.90;;;;;;5050332;28;20181;-56
2021/12/21 00:15:22;;;;;;;19.70;5.00;;;6.50;99.90;;;;;;5050328;28;20191;-56
2021/12/21 00:23:18;;;;;;;24.73;4.70;;;6.40;99.90;;;;;;5049850;28;20222;-56
2021/12/21 00:25:37;;;;;;;23.03;3.77;;;6.40;99.90;;;;;;5037555;28;20312;-56
2021/12/21 00:28:03;;;;;;;16.53;3.93;;;6.50;99.90;;;;;;5050471;28;20260;-56
2021/12/21 00:30:29;;;;;;;24.13;3.90;;;6.40;99.90;;;;;;5050188;28;20287;-56
2021/12/21 00:32:55;;;;;;;25.97;5.23;;;6.40;99.90;;;;;;5050412;28;20181;-56
2021/12/21 00:35:20;;;;;;;21.43;4.40;;;6.40;99.90;;;;;;5050148;28;20181;-56
2021/12/21 00:37:47;;;;;;;26.87;4.50;;;6.40;99.90;;;;;;5050311;28;20256;-56
2021/12/21 00:40:13;;;;;;;19.87;4.07;;;6.40;99.90;;;;;;5049657;28;20184;-56
2021/12/21 00:42:40;;;;;;;28.00;4.00;;;6.40;99.90;;;;;;5050003;28;20186;-56
2021/12/21 00:45:06;;;;;;;24.37;3.90;;;6.40;99.90;;;;;;5050317;28;20274;-57
2021/12/21 00:47:34;;;;;;;20.03;4.27;;;6.40;99.90;;;;;;5050090;28;20181;-57
2021/12/21 00:50:03;;;;;;;23.33;4.37;;;6.40;99.90;;;;;;5050301;28;20219;-56
2021/12/21 00:52:29;;;;;;;27.93;4.00;;;6.40;99.90;;;;;;5050261;28;20274;-57
2021/12/21 00:54:55;;;;;;;31.37;3.83;;;6.40;99.90;;;;;;5053665;28;20191;-56
2021/12/21 00:57:21;;;;;;;19.23;4.47;;;6.40;99.90;;;;;;5054452;28;20672;-56
2021/12/21 00:59:47;;;;;;;22.47;3.83;;;6.40;99.90;;;;;;5054153;28;20256;-56
2021/12/21 01:02:14;;;;;;;28.27;4.20;;;6.40;99.90;;;;;;5053715;28;20179;-57
2021/12/21 01:04:44;;;;;;;22.40;4.00;;;6.40;99.90;;;;;;5053942;28;20185;-56
2021/12/21 01:12:08;;;;;;;27.53;5.67;;;6.40;99.90;;;;;;5053821;28;20542;-56
2021/12/21 01:15:02;;;;;;;32.57;4.23;;;6.40;99.90;;;;;;5053502;28;20273;-56
2021/12/21 01:17:29;;;;;;;21.93;4.90;;;6.40;99.90;;;;;;5052913;28;20185;-56
2021/12/21 01:20:06;;;;;;;21.13;3.90;;;6.40;99.90;;;;;;5053552;28;20181;-57
2021/12/21 01:30:16;;;;;;;24.40;4.20;;;6.40;99.90;;;;;;5033446;28;20174;-56
2021/12/21 01:32:58;;;;;;;22.10;4.30;;;6.40;99.90;;;;;;5033642;28;20181;-56
2021/12/21 01:38:00;;;;;;;23.20;4.63;;;6.40;99.90;;;;;;5033561;28;20170;-56
2021/12/21 01:43:41;;;;;;;22.93;3.97;;;6.40;99.90;;;;;;5010549;28;20189;-56
2021/12/21 01:51:36;;;;;;;27.10;4.67;;;6.30;99.90;;;;;;5033147;28;20197;-56
2021/12/21 01:54:02;;;;;;;23.87;4.20;;;6.30;99.90;;;;;;5033096;28;20236;-56
2021/12/21 01:56:28;;;;;;;20.10;3.37;;;6.30;99.90;;;;;;5033548;28;20166;-56
2021/12/21 01:58:54;;;;;;;18.00;3.60;;;6.30;99.90;;;;;;5033463;28;20196;-56
2021/12/21 02:01:22;;;;;;;23.93;3.57;;;6.30;99.90;;;;;;5032765;28;20178;-56
2021/12/21 02:03:48;;;;;;;23.83;3.93;;;6.30;99.90;;;;;;5032414;28;20178;-58
2021/12/21 02:06:18;;;;;;;18.43;3.13;;;6.30;99.90;;;;;;5032092;28;20263;-56
2021/12/21 02:08:44;;;;;;;25.53;3.53;;;6.20;99.90;;;;;;5033066;28;20648;-56
2021/12/21 02:11:11;;;;;;;24.53;4.00;;;6.20;99.90;;;;;;5032768;28;20190;-56
2021/12/21 02:13:38;;;;;;;21.80;4.10;;;6.20;99.90;;;;;;5032954;28;20166;-56
2021/12/21 02:16:05;;;;;;;17.20;3.80;;;6.20;99.90;;;;;;5032640;28;20217;-55
2021/12/21 02:21:20;;;;;;;27.20;3.97;;;6.20;99.90;;;;;;5032456;28;20860;-56
2021/12/21 02:23:48;;;;;;;20.37;3.40;;;6.20;99.90;;;;;;5013194;28;20174;-56
2021/12/21 02:31:35;;;;;;;24.53;4.17;;;6.20;99.90;;;;;;5052601;28;20184;-56
2021/12/21 02:34:02;;;;;;;21.97;3.53;;;6.10;99.90;;;;;;5052496;28;20181;-56
2021/12/21 02:36:28;;;;;;;15.07;3.47;;;6.20;99.90;;;;;;5052443;28;20173;-56
2021/12/21 02:38:54;;;;;;;25.63;4.13;;;6.20;99.90;;;;;;5052266;28;20330;-56
2021/12/21 02:41:19;;;;;;;22.60;4.07;;;6.20;99.90;;;;;;5051837;28;20181;-56
2021/12/21 02:43:45;;;;;;;19.70;3.90;;;6.10;99.90;;;;;;5052429;28;20256;-56
2021/12/21 02:46:11;;;;;;;20.13;3.60;;;6.10;99.90;;;;;;5052108;28;20303;-56
2021/12/21 02:48:37;;;;;;;21.43;3.97;;;6.10;99.90;;;;;;5052475;28;20165;-57
2021/12/21 02:51:03;;;;;;;18.57;3.37;;;6.10;99.90;;;;;;5051939;28;20181;-56
2021/12/21 02:53:28;;;;;;;22.43;3.57;;;6.10;99.90;;;;;;5051800;28;20181;-57
2021/12/21 02:55:54;;;;;;;26.80;3.97;;;6.10;99.90;;;;;;5051991;28;20181;-57
2021/12/21 02:58:20;;;;;;;20.67;4.00;;;6.10;99.90;;;;;;5051959;28;20205;-56
2021/12/21 03:00:47;;;;;;;39.67;4.93;;;6.10;99.90;;;;;;5051961;28;20173;-56
2021/12/21 03:03:14;;;;;;;29.23;5.27;;;6.10;99.90;;;;;;5051990;28;20207;-56
2021/12/21 03:05:51;;;;;;;21.93;4.27;;;6.10;99.90;;;;;;5050610;28;20213;-56
2021/12/21 03:08:22;;;;;;;22.97;4.47;;;6.10;99.90;;;;;;5051773;28;20259;-56
2021/12/21 03:11:07;;;;;;;21.87;4.27;;;6.10;99.90;;;;;;5051551;28;20256;-56
2021/12/21 03:16:19;;;;;;;17.53;3.60;;;6.10;99.90;;;;;;5051068;28;20766;-60
2021/12/21 03:18:46;;;;;;;19.97;3.70;;;6.10;99.90;;;;;;5051179;28;20264;-57
2021/12/21 03:21:13;;;;;;;22.67;3.83;;;6.00;99.90;;;;;;5049213;28;21259;-56
2021/12/21 03:23:40;;;;;;;22.00;3.57;;;6.10;99.90;;;;;;5050659;28;20212;-56
2021/12/21 03:26:06;;;;;;;26.70;4.27;;;6.10;99.90;;;;;;5051055;28;20213;-56
2021/12/21 03:28:33;;;;;;;14.53;3.30;;;6.10;99.90;;;;;;5051352;28;20188;-56
2021/12/21 03:30:59;;;;;;;25.33;4.07;;;6.10;99.90;;;;;;5049463;28;20550;-57
2021/12/21 03:33:25;;;;;;;20.30;3.73;;;6.00;99.90;;;;;;5050246;28;20231;-56
2021/12/21 03:35:51;;;;;;;20.87;3.90;;;6.00;99.90;;;;;;5050542;28;20185;-56
2021/12/21 03:38:17;;;;;;;17.67;3.60;;;6.00;99.90;;;;;;5051094;28;20636;-57
2021/12/21 03:40:44;;;;;;;19.80;3.50;;;6.00;99.90;;;;;;5051256;28;20181;-57
2021/12/21 03:43:10;;;;;;;19.37;4.00;;;5.90;99.90;;;;;;5050946;28;20174;-56
2021/12/21 03:45:41;;;;;;;22.53;4.57;;;5.90;99.90;;;;;;5051165;28;20205;-56
2021/12/21 03:48:12;;;;;;;23.87;4.70;;;5.90;99.90;;;;;;5051197;28;20192;-57
2021/12/21 03:50:38;;;;;;;23.77;4.97;;;5.90;99.90;;;;;;5050957;28;20189;-57
2021/12/21 03:53:04;;;;;;;18.00;4.03;;;5.90;99.90;;;;;;5051104;28;20318;-57
2021/12/21 03:55:30;;;;;;;19.70;4.63;;;6.00;99.90;;;;;;5050644;28;20184;-57
2021/12/21 03:57:55;;;;;;;23.87;3.80;;;5.90;99.90;;;;;;5050913;28;20709;-56
2021/12/21 04:00:23;;;;;;;18.73;4.27;;;6.00;99.90;;;;;;5050938;28;20268;-56
2021/12/21 04:02:49;;;;;;;16.60;3.80;;;5.90;99.90;;;;;;5051013;28;20183;-57
2021/12/21 04:05:15;;;;;;;19.77;3.90;;;5.90;99.90;;;;;;5050567;28;20208;-56
2021/12/21 04:07:41;;;;;;;17.07;3.90;;;5.90;99.90;;;;;;5050610;28;20192;-56
2021/12/21 04:10:07;;;;;;;21.67;4.00;;;5.90;99.90;;;;;;5050391;28;20270;-56
2021/12/21 04:12:34;;;;;;;22.13;3.97;;;6.00;99.90;;;;;;5050954;28;20621;-56
2021/12/21 04:15:02;;;;;;;17.47;4.27;;;6.00;99.90;;;;;;5050452;28;20169;-56
2021/12/21 04:17:29;;;;;;;18.33;3.93;;;6.00;99.90;;;;;;5050656;28;20717;-56
2021/12/21 04:19:54;;;;;;;16.03;3.60;;;6.00;99.90;;;;;;5050266;28;20205;-56
2021/12/21 04:22:21;;;;;;;20.03;3.23;;;6.00;99.90;;;;;;5050433;28;20679;-56
2021/12/21 04:24:47;;;;;;;30.03;4.10;;;6.00;99.90;;;;;;5050674;28;20165;-56
2021/12/21 04:27:13;;;;;;;16.17;3.97;;;6.00;99.90;;;;;;5051186;28;20282;-56
2021/12/21 04:29:39;;;;;;;25.00;4.50;;;6.00;99.90;;;;;;5057104;28;20181;-56
2021/12/21 04:32:05;;;;;;;18.57;3.87;;;6.00;99.90;;;;;;5057077;28;20177;-56
2021/12/21 04:34:31;;;;;;;22.77;3.70;;;6.00;99.90;;;;;;5057286;28;20632;-56
2021/12/21 04:36:57;;;;;;;23.43;3.83;;;6.00;99.90;;;;;;5057335;28;20181;-56
2021/12/21 04:39:39;;;;;;;21.60;4.40;;;6.00;99.90;;;;;;5057093;28;20688;-56
2021/12/21 04:42:06;;;;;;;21.60;3.93;;;6.00;99.90;;;;;;5057224;28;20646;-56
2021/12/21 04:44:32;;;;;;;26.20;4.03;;;6.00;99.90;;;;;;5057124;28;20219;-56
2021/12/21 04:46:58;;;;;;;16.23;3.73;;;5.90;99.90;;;;;;5057074;28;20305;-57
2021/12/21 04:49:24;;;;;;;23.40;4.10;;;5.90;99.90;;;;;;5056673;28;20651;-56
2021/12/21 04:51:50;;;;;;;19.53;3.97;;;5.90;99.90;;;;;;5057070;28;20169;-56
2021/12/21 04:54:15;;;;;;;21.20;3.87;;;5.90;99.90;;;;;;5056766;28;20209;-56
2021/12/21 04:56:41;;;;;;;18.63;4.10;;;5.90;99.90;;;;;;5057179;28;20168;-57
2021/12/21 04:59:07;;;;;;;19.00;3.80;;;5.90;99.90;;;;;;5057021;28;20177;-56
2021/12/21 05:01:33;;;;;;;18.10;4.03;;;5.80;99.90;;;;;;5056961;28;20644;-57
2021/12/21 05:03:59;;;;;;;23.10;4.27;;;5.80;99.90;;;;;;5056961;28;20227;-57
2021/12/21 05:06:26;;;;;;;18.90;3.63;;;5.90;99.90;;;;;;5056801;28;20213;-56
2021/12/21 05:09:07;;;;;;;19.60;3.97;;;5.90;99.90;;;;;;5057268;28;20246;-56
2021/12/21 05:11:35;;;;;;;18.13;3.80;;;5.80;99.90;;;;;;5052369;28;20279;-57
2021/12/21 05:14:01;;;;;;;22.27;3.87;;;5.80;99.90;;;;;;5056658;28;20181;-57
2021/12/21 05:16:27;;;;;;;16.03;3.57;;;5.80;99.90;;;;;;5056717;28;20666;-57
2021/12/21 05:18:52;;;;;;;18.17;4.30;;;5.90;99.90;;;;;;5056892;28;20222;-57
2021/12/21 05:21:18;;;;;;;21.47;4.63;;;5.80;99.90;;;;;;5056602;28;20184;-57
2021/12/21 05:23:44;;;;;;;24.50;4.63;;;6.80;99.90;;;;;;5056759;28;20172;-56
2021/12/21 05:26:10;;;;;;;15.97;4.70;;;5.70;99.90;;;;;;5056262;28;20232;-56
2021/12/21 05:28:35;;;;;;;15.00;4.23;;;5.70;99.90;;;;;;5056762;28;20172;-56
2021/12/21 05:31:01;;;;;;;19.87;4.10;;;5.70;99.90;;;;;;5054725;28;20200;-56
2021/12/21 05:33:28;;;;;;;25.90;4.90;;;5.70;99.90;;;;;;5056346;28;20212;-56
2021/12/21 05:35:55;;;;;;;21.37;4.70;;;5.60;99.90;;;;;;5056501;28;20173;-56
2021/12/21 05:38:29;;;;;;;19.63;4.40;;;5.60;99.90;;;;;;5056363;28;20185;-56
2021/12/21 05:40:57;;;;;;;18.07;4.53;;;5.60;99.90;;;;;;5052220;28;20169;-57
2021/12/21 05:43:22;;;;;;;18.93;3.93;;;5.60;99.90;;;;;;5052840;28;20207;-57
2021/12/21 05:45:48;;;;;;;26.40;4.70;;;5.70;99.90;;;;;;5053395;28;20659;-56
2021/12/21 05:48:14;;;;;;;20.83;4.67;;;5.70;99.90;;;;;;5053639;28;20651;-56
2021/12/21 05:50:40;;;;;;;20.83;4.57;;;5.50;99.90;;;;;;5053307;28;20698;-56
2021/12/21 05:53:05;;;;;;;14.57;3.87;;;5.60;99.90;;;;;;5038020;28;20185;-56
2021/12/21 05:55:31;;;;;;;21.37;4.73;;;5.60;99.90;;;;;;5040457;28;20181;-56
2021/12/21 05:57:58;;;;;;;28.83;4.57;;;5.60;99.90;;;;;;5052938;28;20178;-56
2021/12/21 06:00:27;;;;;;;17.10;4.07;;;5.60;99.90;;;;;;5053171;28;20256;-56
2021/12/21 06:02:54;;;;;;;23.60;4.20;;;5.60;99.90;;;;;;5053216;28;20177;-56
2021/12/21 06:05:20;;;;;;;28.63;4.47;;;5.60;99.90;;;;;;5052711;28;20197;-56
2021/12/21 06:07:50;;;;;;;21.53;4.20;;;5.60;99.90;;;;;;5051667;28;20173;-56
2021/12/21 06:10:22;;;;;;;17.90;4.23;;;5.60;99.90;;;;;;5052845;28;20185;-56
2021/12/21 06:26:13;;;;;;;18.40;4.03;;;5.40;99.90;;;;;;5052117;28;20232;-56
2021/12/21 06:28:40;;;;;;;18.17;4.77;;;5.40;99.90;;;;;;5052574;28;20177;-56
2021/12/21 06:31:06;;;;;;;26.23;4.90;;;5.40;99.90;;;;;;5052281;28;20670;-56
2021/12/21 06:33:32;;;;;;;24.53;4.57;;;5.30;99.90;;;;;;5052387;28;20647;-56
2021/12/21 06:35:59;;;;;;;19.33;4.47;;;5.30;99.90;;;;;;5052303;28;20177;-56
2021/12/21 06:38:26;;;;;;;22.67;5.03;;;5.40;99.90;;;;;;5052727;28;20180;-56
2021/12/21 06:40:52;;;;;;;14.53;4.13;;;5.30;99.90;;;;;;5051844;28;20231;-56
2021/12/21 06:43:19;;;;;;;18.40;4.70;;;5.30;99.90;;;;;;5052042;28;20189;-56
2021/12/21 06:45:52;;;;;;;22.07;4.67;;;5.40;99.90;;;;;;5052482;28;20212;-56
2021/12/21 06:53:52;;;;;;;17.00;4.97;;;5.40;99.90;;;;;;5052287;28;20261;-61
2021/12/21 06:56:19;;;;;;;19.80;5.00;;;5.40;99.90;;;;;;5052073;28;20276;-56
2021/12/21 06:58:44;;;;;;;16.50;4.47;;;5.40;99.90;;;;;;5051802;28;20182;-60
2021/12/21 07:01:13;;;;;;;23.90;5.40;;;5.50;99.90;;;;;;5050552;28;20192;-56
2021/12/21 07:03:41;;;;;;;21.03;4.60;;;5.40;99.90;;;;;;5051894;28;20192;-56
2021/12/21 07:06:07;;;;;;;24.33;5.40;;;5.50;99.90;;;;;;5051653;28;20216;-56
2021/12/21 07:08:44;;;;;;;21.00;5.40;;;5.50;99.90;;;;;;5051189;28;20181;-56
2021/12/21 07:19:09;;;;;;;15.40;4.90;;;5.60;99.90;;;;;;5051941;28;20195;-59
2021/12/21 07:21:36;;;;;;;17.03;5.10;;;5.50;99.90;;;;;;5051413;28;20189;-57
2021/12/21 07:24:02;;;;;;;15.70;4.67;;;5.60;99.90;;;;;;5051844;28;20173;-57
2021/12/21 07:26:27;;;;;;;24.87;5.50;;;5.50;99.90;;;;;;5050933;28;20236;-57
2021/12/21 07:28:53;;;;;;;16.80;5.20;;;5.50;99.90;;;;;;5049475;28;20174;-57
2021/12/21 07:31:19;;;;;;;26.03;5.70;;;5.50;99.90;;;;;;5051088;28;20169;-56
2021/12/21 07:33:45;;;;;;;20.43;5.00;;;5.50;99.90;;;;;;5050930;28;20287;-56
2021/12/21 07:36:11;;;;;;;16.80;4.47;;;5.50;99.90;;;;;;5051486;28;20208;-56
2021/12/21 07:38:37;;;;;;;20.97;5.33;;;5.50;99.90;;;;;;5051326;28;20168;-56
2021/12/21 07:41:03;;;;;;;27.60;5.50;;;5.50;99.90;;;;;;5050746;28;20184;-56
2021/12/21 07:43:30;;;;;;;20.07;6.00;;;5.50;99.90;;;;;;5051345;28;20174;-56
2021/12/21 07:45:56;;;;;;;16.83;5.33;;;5.50;99.90;;;;;;5050694;28;20717;-56
2021/12/21 07:48:22;;;;;;;20.10;5.10;;;5.50;99.90;;;;;;5051168;28;20182;-57
2021/12/21 07:50:49;;;;;;;20.90;5.80;;;5.50;99.90;;;;;;5050898;28;20201;-56
2021/12/21 07:53:15;;;;;;;24.87;5.60;;;5.50;99.90;;;;;;5050561;28;20222;-57
2021/12/21 07:55:42;;;;;;;22.23;5.53;;;5.50;99.90;;;;;;5050402;28;20204;-57
2021/12/21 07:58:08;;;;;;;24.87;5.83;;;5.50;99.90;;;;;;5050534;28;20177;-57
2021/12/21 08:00:34;;;;;;;16.30;5.23;;;5.50;99.90;;;;;;5050641;28;20181;-57
2021/12/21 08:03:00;;;;;;;16.67;5.53;;;5.40;99.90;;;;;;5050074;28;20318;-57
2021/12/21 08:05:34;;;;;;;22.50;5.83;;;5.50;99.90;;;;;;5050028;28;20720;-57
2021/12/21 08:08:17;;;;;;;19.03;5.73;;;5.50;99.90;;;;;;5050625;28;20192;-57
2021/12/21 08:10:53;;;;;;;22.50;5.77;;;5.50;99.90;;;;;;5040774;28;20181;-59
2021/12/21 08:13:20;;;;;;;21.60;6.17;;;5.50;99.90;;;;;;5049094;28;20645;-59
2021/12/21 08:15:46;;;;;;;14.93;5.60;;;5.40;99.90;;;;;;5050126;28;20589;-59
2021/12/21 08:18:12;;;;;;;25.20;6.73;;;5.40;99.90;;;;;;5050912;28;20180;-59
2021/12/21 08:20:38;;;;;;;28.13;6.80;;;5.40;99.90;;;;;;5050930;28;20319;-59
2021/12/21 08:23:06;;;;;;;22.10;6.43;;;5.40;99.90;;;;;;5049610;28;20188;-59
2021/12/21 08:25:36;;;;;;;17.87;6.30;;;5.40;99.90;;;;;;5050050;28;20252;-61
2021/12/21 08:28:03;;;;;;;24.73;6.83;;;5.40;99.90;;;;;;5050390;28;20177;-59
2021/12/21 08:30:29;;;;;;;21.07;6.30;;;5.40;99.90;;;;;;5050795;28;20165;-58
2021/12/21 08:32:57;;;;;;;27.07;6.77;;;5.40;99.90;;;;;;5049321;28;20635;-58
2021/12/21 08:35:23;;;;;;;26.17;7.10;;;5.40;99.90;;;;;;5050645;28;20181;-60
2021/12/21 08:37:52;;;;;;;31.63;7.60;;;5.50;99.90;;;;;;5050673;28;20247;-58
2021/12/21 08:40:22;;;;;;;23.43;7.00;;;5.50;99.90;;;;;;5050544;28;20272;-58
2021/12/21 08:42:51;;;;;;;28.90;7.30;;;5.50;99.90;;;;;;5050276;28;20640;-58
2021/12/21 08:45:17;;;;;;;22.83;7.27;;;5.50;99.90;;;;;;5050613;28;20176;-59
2021/12/21 08:47:43;;;;;;;21.70;6.53;;;5.60;99.90;;;;;;5050671;28;20228;-59
2021/12/21 08:50:12;;;;;;;24.03;6.90;;;5.60;99.90;;;;;;5049208;28;20177;-59
2021/12/21 08:52:38;;;;;;;27.60;9.20;;;5.60;99.90;;;;;;5049590;28;20185;-67
2021/12/21 08:55:07;;;;;;;24.83;7.70;;;5.70;99.90;;;;;;5050549;28;20201;-59
2021/12/21 08:57:33;;;;;;;32.10;8.23;;;5.70;99.90;;;;;;5049266;28;20173;-68
2021/12/21 08:59:59;;;;;;;20.17;7.67;;;5.70;99.90;;;;;;5048611;28;20185;-68
2021/12/21 09:02:29;;;;;;;28.60;8.33;;;5.70;99.90;;;;;;5050227;28;20235;-68
2021/12/21 09:04:55;;;;;;;26.40;8.27;;;5.70;99.90;;;;;;5050047;28;20178;-68
2021/12/21 09:07:20;;;;;;;25.10;7.73;;;5.80;99.90;;;;;;5049629;28;20216;-68
2021/12/21 09:09:46;;;;;;;30.63;8.40;;;5.80;99.90;;;;;;5050496;28;20170;-69
2021/12/21 09:12:12;;;;;;;22.27;7.87;;;5.80;99.90;;;;;;5050233;28;20253;-69
2021/12/21 09:14:38;;;;;;;27.73;8.07;;;5.80;99.90;;;;;;5051391;28;20551;-67
2021/12/21 09:17:04;;;;;;;24.10;8.87;;;5.80;99.90;;;;;;5054083;28;20219;-69
2021/12/21 09:19:29;;;;;;;32.07;9.60;;;5.90;99.90;;;;;;5053947;28;20579;-65
2021/12/21 09:21:55;;;;;;;23.73;7.90;;;6.00;99.90;;;;;;5053656;28;20257;-65
2021/12/21 09:24:21;;;;;;;26.67;8.03;;;6.00;99.90;;;;;;5054076;28;20258;-68
2021/12/21 09:26:47;;;;;;;25.23;7.77;;;6.00;99.90;;;;;;5053459;28;20260;-68
2021/12/21 09:29:13;;;;;;;27.70;7.50;;;6.00;99.90;;;;;;5053973;28;20703;-64
2021/12/21 09:31:38;;;;;;;23.50;8.47;;;6.00;99.90;;;;;;5053805;28;20188;-69
2021/12/21 09:34:04;;;;;;;24.50;7.97;;;6.10;99.90;;;;;;5053325;28;20169;-64
2021/12/21 09:36:30;;;;;;;22.63;8.97;;;6.10;99.90;;;;;;5052974;28;20194;-64
2021/12/21 09:38:57;;;;;;;22.47;8.13;;;6.10;99.90;;;;;;5053738;28;20173;-64
2021/12/21 09:41:23;;;;;;;22.13;8.50;;;6.10;99.90;;;;;;5053867;28;20180;-64
2021/12/21 09:43:50;;;;;;;20.40;7.97;;;6.10;99.90;;;;;;5051993;28;20543;-63
2021/12/21 09:46:17;;;;;;;22.37;8.17;;;6.20;99.90;;;;;;5053632;28;20212;-58
2021/12/21 09:48:44;;;;;;;25.57;8.90;;;6.20;99.90;;;;;;5053417;28;20193;-64
2021/12/21 09:51:10;;;;;;;29.07;8.40;;;6.30;99.90;;;;;;5053667;28;20177;-65
2021/12/21 09:53:36;;;;;;;21.10;7.17;;;6.20;99.90;;;;;;5052248;28;20624;-68
2021/12/21 09:56:04;;;;;;;28.07;7.37;;;6.20;99.90;;;;;;5052994;28;20173;-69
2021/12/21 09:58:30;;;;;;;23.60;7.73;;;6.30;99.90;;;;;;5052950;28;20239;-69
2021/12/21 10:00:56;;;;;;;23.93;7.40;;;6.30;99.90;;;;;;5052662;28;20169;-69
2021/12/21 10:03:22;;;;;;;28.60;7.10;;;6.40;99.90;;;;;;5040898;28;20184;-68
2021/12/21 10:05:48;;;;;;;20.93;7.10;;;6.40;99.90;;;;;;5048552;28;20248;-69
2021/12/21 10:08:15;;;;;;;24.13;7.07;;;6.40;99.90;;;;;;5041718;28;20182;-68
2021/12/21 10:10:51;;;;;;;23.30;6.97;;;6.50;99.90;;;;;;5048172;28;20188;-68
2021/12/21 10:13:22;;;;;;;25.77;7.40;;;6.50;99.90;;;;;;5051938;28;20173;-68
2021/12/21 10:15:56;;;;;;;19.67;6.70;;;6.50;99.90;;;;;;5051339;28;20169;-69
2021/12/21 10:18:28;;;;;;;25.03;7.43;;;6.50;99.90;;;;;;5051485;28;20185;-68
2021/12/21 10:20:57;;;;;;;14.47;6.07;;;6.50;99.90;;;;;;5052700;28;20255;-68
2021/12/21 10:23:31;;;;;;;21.80;8.00;;;6.50;99.90;;;;;;5052869;28;20172;-68
2021/12/21 10:26:10;;;;;;;22.70;7.20;;;6.40;99.90;;;;;;5052630;28;20690;-67
2021/12/21 10:28:39;;;;;;;16.43;4.43;;;6.40;99.90;;;;;;5053131;28;20390;-67
2021/12/21 10:31:45;;;;;;;15.97;5.87;;;6.40;99.90;;;;;;5053251;28;20174;-67
2021/12/21 10:34:15;;;;;;;20.80;5.93;;;6.30;99.90;;;;;;5052880;28;20698;-67
2021/12/21 10:36:46;;;;;;;16.13;5.57;;;6.40;99.90;;;;;;5052707;28;20184;-68
2021/12/21 10:39:20;;;;;;;15.43;5.60;;;6.40;99.90;;;;;;5052838;28;20179;-67
2021/12/21 10:41:46;;;;;;;15.30;5.77;;;6.50;99.90;;;;;;5051971;28;20303;-67
2021/12/21 10:44:15;;;;;;;26.90;7.17;;;6.40;99.90;;;;;;5052795;28;20231;-67
2021/12/21 10:46:47;;;;;;;18.10;5.80;;;6.50;99.90;;;;;;5052351;28;20216;-68
2021/12/21 10:49:19;;;;;;;17.10;5.63;;;6.60;99.90;;;;;;5052388;28;20180;-67
2021/12/21 10:51:55;;;;;;;17.40;5.40;;;6.50;99.90;;;;;;5043408;28;20344;-67
2021/12/21 10:54:39;;;;;;;10.57;5.03;;;6.50;99.90;;;;;;5045320;28;20181;-67
2021/12/21 10:57:19;;;;;;;13.57;4.77;;;6.40;99.90;;;;;;5045383;28;20181;-67
2021/12/21 10:59:48;;;;;;;11.23;4.67;;;6.40;99.90;;;;;;5044229;28;20176;-69
2021/12/21 11:02:18;;;;;;;13.63;4.27;;;6.40;99.90;;;;;;5047433;28;20611;-67
2021/12/21 11:04:48;;;;;;;19.03;4.77;;;6.50;99.90;;;;;;5037852;28;20174;-67
2021/12/21 11:10:12;;;;;;;9.60;3.67;;;6.60;99.90;;;;;;5048344;28;20177;-67
2021/12/21 11:12:56;;;;;;;11.73;3.63;;;6.50;99.90;;;;;;5069238;28;20542;-67
2021/12/21 11:15:31;;;;;;;16.47;3.67;;;6.50;99.90;;;;;;5053626;28;20169;-68
2021/12/21 11:17:59;;;;;;;12.03;4.30;;;6.50;99.90;;;;;;5050611;28;20658;-69
2021/12/21 11:20:26;;;;;;;13.00;4.43;;;6.60;99.90;;;;;;5052358;28;20720;-67
2021/12/21 11:22:53;;;;;;;11.73;4.00;;;6.50;99.90;;;;;;5052850;28;20219;-67
2021/12/21 11:25:20;;;;;;;11.17;4.77;;;6.50;99.90;;;;;;5051074;28;20189;-66
2021/12/21 11:27:47;;;;;;;13.47;5.07;;;6.60;99.90;;;;;;5051383;28;20280;-66
2021/12/21 11:30:20;;;;;;;15.97;5.60;;;6.60;99.90;;;;;;5051325;28;20162;-65
2021/12/21 11:32:49;;;;;;;19.80;5.80;;;6.60;99.90;;;;;;5051545;28;20243;-66
2021/12/21 11:37:51;;;;;;;14.83;4.60;;;6.60;99.90;;;;;;5051252;28;20628;-67
2021/12/21 11:40:21;;;;;;;14.17;5.23;;;6.60;99.90;;;;;;5051431;28;20169;-66
2021/12/21 11:43:02;;;;;;;20.40;5.27;;;6.50;99.90;;;;;;5051378;28;20184;-66
2021/12/21 11:45:45;;;;;;;19.63;5.93;;;6.50;99.90;;;;;;5049374;28;20169;-65
2021/12/21 11:48:10;;;;;;;20.07;5.87;;;6.60;99.90;;;;;;5049958;28;20691;-70
2021/12/21 11:50:39;;;;;;;22.40;5.10;;;6.40;99.90;;;;;;5050005;28;20276;-66
2021/12/21 11:53:10;;;;;;;27.37;5.93;;;6.30;99.90;;;;;;5050334;28;20204;-65
2021/12/21 11:55:39;;;;;;;21.50;6.20;;;6.20;99.90;;;;;;5048480;28;20204;-66
2021/12/21 11:58:16;;;;;;;17.77;5.47;;;6.20;99.90;;;;;;5049609;28;20177;-66
2021/12/21 12:00:54;;;;;;;12.60;5.67;;;6.30;99.90;;;;;;5051379;28;20189;-67
2021/12/21 12:03:23;;;;;;;15.70;5.97;;;6.30;99.90;;;;;;5051688;28;20173;-66
2021/12/21 12:05:57;;;;;;;8.90;3.80;;;6.30;99.90;;;;;;5066743;28;20208;-63
2021/12/21 12:08:27;;;;;;;15.47;5.33;;;6.30;99.90;;;;;;5052033;28;20349;-66
2021/12/21 12:10:58;;;;;;;21.40;5.87;;;6.30;99.90;;;;;;5051345;28;20177;-65
2021/12/21 12:13:29;;;;;;;11.73;4.93;;;6.30;99.90;;;;;;5051167;28;20641;-66
2021/12/21 12:16:02;;;;;;;18.43;6.57;;;6.30;99.90;;;;;;5050988;28;20166;-66
2021/12/21 12:18:49;;;;;;;18.97;6.50;;;6.50;99.90;;;;;;5051063;28;20248;-66
2021/12/21 12:21:30;;;;;;;17.40;6.57;;;6.50;99.90;;;;;;5051519;28;20173;-66
2021/12/21 12:24:01;;;;;;;18.77;7.53;;;6.40;99.90;;;;;;5050956;28;20254;-66
2021/12/21 12:26:27;;;;;;;22.17;7.10;;;6.50;99.90;;;;;;5050735;28;20304;-67
2021/12/21 12:28:55;;;;;;;16.53;6.60;;;6.50;99.90;;;;;;5050872;28;20260;-65
2021/12/21 12:31:42;;;;;;;14.80;6.57;;;6.40;99.90;;;;;;5050898;28;20181;-66
2021/12/21 12:34:08;;;;;;;19.30;7.17;;;6.50;99.90;;;;;;5050730;28;20191;-66
2021/12/21 12:36:50;;;;;;;18.77;7.23;;;6.60;99.90;;;;;;5050719;28;20207;-66
2021/12/21 12:39:30;;;;;;;18.83;7.20;;;6.50;99.90;;;;;;5051163;28;20177;-66
2021/12/21 12:42:16;;;;;;;16.37;7.43;;;6.50;99.90;;;;;;5050844;28;20212;-67
2021/12/21 12:44:45;;;;;;;19.03;6.73;;;6.60;99.90;;;;;;5050770;28;20165;-67
2021/12/21 12:47:13;;;;;;;12.10;5.80;;;6.60;99.90;;;;;;5050671;28;20212;-66
2021/12/21 12:49:54;;;;;;;17.70;6.73;;;6.50;99.90;;;;;;5054154;28;20201;-69
2021/12/21 12:52:28;;;;;;;17.27;6.20;;;6.40;99.90;;;;;;5055250;28;20219;-65
2021/12/21 12:55:14;;;;;;;21.30;6.77;;;6.40;99.90;;;;;;5058503;28;20177;-66
2021/12/21 12:57:50;;;;;;;18.77;7.87;;;6.40;99.90;;;;;;5058546;28;20213;-66
2021/12/21 13:00:28;;;;;;;21.33;7.60;;;6.50;99.90;;;;;;5057859;28;20169;-67
2021/12/21 13:03:02;;;;;;;19.23;8.00;;;6.10;99.90;;;;;;5055884;28;20173;-66
2021/12/21 13:05:37;;;;;;;17.20;7.97;;;6.50;99.90;;;;;;5054392;28;20240;-65
2021/12/21 13:08:14;;;;;;;16.80;7.73;;;6.70;99.90;;;;;;5054425;28;20252;-67
2021/12/21 13:10:46;;;;;;;22.17;8.50;;;6.70;99.90;;;;;;5054252;28;20183;-64
2021/12/21 13:13:12;;;;;;;22.37;8.27;;;6.70;99.90;;;;;;5054138;28;20185;-66
2021/12/21 13:15:44;;;;;;;15.63;7.90;;;6.60;99.90;;;;;;5054253;28;20173;-65
2021/12/21 13:18:13;;;;;;;21.27;7.90;;;6.50;99.90;;;;;;5054093;28;20161;-66
2021/12/21 13:20:41;;;;;;;23.80;8.67;;;6.70;99.90;;;;;;5054236;28;20719;-66
2021/12/21 13:23:15;;;;;;;18.13;8.67;;;6.70;99.90;;;;;;5054201;28;20166;-66
2021/12/21 13:25:56;;;;;;;20.67;8.37;;;6.60;99.90;;;;;;5052578;28;20238;-66
2021/12/21 13:28:22;;;;;;;20.47;8.40;;;6.70;99.90;;;;;;5053214;28;20177;-66
2021/12/21 13:30:50;;;;;;;18.70;7.97;;;6.70;99.90;;;;;;5049904;28;20181;-67
2021/12/21 13:33:23;;;;;;;23.27;9.07;;;6.50;99.90;;;;;;5053659;28;20521;-66
2021/12/21 13:35:57;;;;;;;23.50;8.50;;;6.70;99.90;;;;;;5053827;28;20192;-65
2021/12/21 13:38:25;;;;;;;22.70;8.37;;;6.60;99.90;;;;;;5053088;28;20254;-65
2021/12/21 13:41:26;;;;;;;20.97;8.43;;;7.60;99.90;;;;;;5053746;28;20734;-65
2021/12/21 13:43:59;;;;;;;20.67;7.93;;;6.60;99.90;;;;;;5051245;28;20598;-66
2021/12/21 13:46:32;;;;;;;25.30;8.67;;;6.60;99.90;;;;;;5052828;28;20209;-66
2021/12/21 13:48:59;;;;;;;15.10;7.80;;;6.80;99.90;;;;;;5052264;28;20173;-67
2021/12/21 13:51:26;;;;;;;15.30;7.73;;;6.80;99.90;;;;;;5050419;28;20264;-66
2021/12/21 13:53:58;;;;;;;18.10;8.33;;;6.40;99.90;;;;;;5053514;28;20177;-66
2021/12/21 13:56:30;;;;;;;18.07;8.20;;;6.60;99.90;;;;;;5048984;28;20242;-66
2021/12/21 13:58:57;;;;;;;22.17;8.63;;;6.70;99.90;;;;;;5051943;28;20204;-66
2021/12/21 14:01:29;;;;;;;20.77;9.77;;;6.70;99.90;;;;;;5052903;28;20268;-66
2021/12/21 14:04:03;;;;;;;20.33;8.90;;;6.60;99.90;;;;;;5053230;28;20192;-66
2021/12/21 14:06:30;;;;;;;18.90;8.37;;;6.70;99.90;;;;;;5053006;28;20212;-66
2021/12/21 14:08:59;;;;;;;22.50;9.03;;;6.50;99.90;;;;;;5053665;28;20177;-65